createdAt,value
2023-03-06T00:01:19.348Z,70.64
2023-03-06T00:03:49.875Z,70.48
2023-03-06T00:06:20.648Z,70.60
2023-03-06T00:08:51.032Z,70.61
2023-03-06T00:11:22.044Z,70.52
2023-03-06T00:13:53.326Z,70.54
2023-03-06T00:16:25.036Z,70.61
2023-03-06T00:18:55.575Z,70.68
2023-03-06T00:21:26.125Z,70.47
2023-03-06T00:23:56.537Z,70.52
2023-03-06T00:26:27.081Z,70.51
2023-03-06T00:28:57.508Z,70.66
2023-03-06T00:31:28.104Z,70.57
2023-03-06T00:33:58.526Z,70.50
2023-03-06T00:36:29.040Z,70.71
2023-03-06T00:38:59.471Z,70.63
2023-03-06T00:41:30.000Z,70.74
2023-03-06T00:44:01.551Z,70.56
2023-03-06T00:46:32.111Z,70.59
2023-03-06T00:49:02.663Z,70.66
2023-03-06T00:51:33.891Z,70.63
2023-03-06T00:54:04.463Z,70.71
2023-03-06T00:56:34.931Z,70.76
2023-03-06T00:59:05.501Z,70.63
2023-03-06T01:01:36.133Z,70.75
2023-03-06T01:04:06.810Z,70.56
2023-03-06T01:06:37.475Z,70.76
2023-03-06T01:09:08.052Z,70.59
2023-03-06T01:11:38.686Z,70.49
2023-03-06T01:14:09.398Z,70.49
2023-03-06T01:16:40.560Z,70.60
2023-03-06T01:19:11.070Z,70.69
2023-03-06T01:21:42.738Z,70.53
2023-03-06T01:24:13.234Z,70.52
2023-03-06T01:26:43.704Z,70.66
2023-03-06T01:29:14.179Z,70.81
2023-03-06T01:31:44.675Z,70.74
2023-03-06T01:34:15.101Z,70.76
2023-03-06T01:36:45.742Z,70.75
2023-03-06T01:39:16.304Z,70.60
2023-03-06T01:41:47.001Z,70.79
2023-03-06T01:44:17.436Z,70.63
2023-03-06T01:46:48.356Z,70.77
2023-03-06T01:49:22.207Z,70.78
2023-03-06T01:51:56.862Z,70.57
2023-03-06T01:54:30.545Z,70.67
2023-03-06T01:57:05.196Z,70.66
2023-03-06T01:59:38.670Z,70.54
2023-03-06T02:02:12.183Z,70.55
2023-03-06T02:04:44.184Z,70.67
2023-03-06T02:07:15.393Z,70.55
2023-03-06T02:09:45.832Z,70.53
2023-03-06T02:12:20.131Z,70.59
2023-03-06T02:14:51.202Z,70.47
2023-03-06T02:17:23.353Z,70.51
2023-03-06T02:19:59.992Z,70.65
2023-03-06T02:22:37.230Z,70.49
2023-03-06T02:25:16.369Z,70.67
2023-03-06T02:27:48.413Z,70.75
2023-03-06T02:30:20.171Z,70.78
2023-03-06T02:32:50.648Z,70.68
2023-03-06T02:35:25.129Z,70.66
2023-03-06T02:37:57.133Z,70.80
2023-03-06T02:40:27.963Z,70.95
2023-03-06T02:42:59.688Z,70.65
2023-03-06T02:45:35.747Z,70.73
2023-03-06T02:48:07.105Z,70.70
2023-03-06T02:50:37.551Z,70.69
2023-03-06T02:53:08.969Z,70.75
2023-03-06T02:55:40.064Z,70.79
2023-03-06T02:58:11.032Z,70.65
2023-03-06T03:00:42.507Z,70.75
2023-03-06T03:03:13.338Z,70.51
2023-03-06T03:05:43.822Z,70.53
2023-03-06T03:08:18.492Z,70.34
2023-03-06T03:10:49.638Z,70.15
2023-03-06T03:13:20.743Z,70.38
2023-03-06T03:16:01.708Z,70.27
2023-03-06T03:18:32.888Z,70.40
2023-03-06T03:21:03.984Z,70.32
2023-03-06T03:23:34.445Z,70.13
2023-03-06T03:26:11.580Z,70.05
2023-03-06T03:28:44.074Z,70.14
2023-03-06T03:31:15.820Z,70.38
2023-03-06T03:33:46.316Z,70.40
2023-03-06T03:36:17.008Z,70.25
2023-03-06T03:38:48.007Z,70.33
2023-03-06T03:41:18.597Z,70.42
2023-03-06T03:43:49.644Z,70.36
2023-03-06T03:46:21.536Z,70.41
2023-03-06T03:48:52.657Z,70.64
2023-03-06T03:51:23.534Z,70.76
2023-03-06T03:53:58.139Z,70.89
2023-03-06T03:56:29.826Z,70.85
2023-03-06T03:59:04.693Z,70.88
2023-03-06T04:01:40.279Z,70.99
2023-03-06T04:04:11.535Z,70.77
2023-03-06T04:06:42.322Z,70.76
2023-03-06T04:09:13.051Z,70.79
2023-03-06T04:11:43.497Z,70.82
2023-03-06T04:14:14.159Z,70.74
2023-03-06T04:16:44.637Z,70.86
2023-03-06T04:19:15.189Z,70.85
2023-03-06T04:21:45.994Z,70.72
2023-03-06T04:24:17.666Z,70.94
2023-03-06T04:26:48.191Z,70.89
2023-03-06T04:29:18.680Z,70.96
2023-03-06T04:31:49.559Z,70.82
2023-03-06T04:34:20.211Z,70.91
2023-03-06T04:36:50.771Z,70.87
2023-03-06T04:39:21.406Z,70.88
2023-03-06T04:41:52.378Z,71.03
2023-03-06T04:44:23.046Z,70.99
2023-03-06T04:46:53.805Z,71.12
2023-03-06T04:49:24.273Z,71.18
2023-03-06T04:51:54.968Z,71.07
2023-03-06T04:54:25.616Z,71.42
2023-03-06T04:56:56.031Z,71.43
2023-03-06T04:59:26.521Z,71.32
2023-03-06T05:01:57.122Z,71.38
2023-03-06T05:04:27.721Z,71.39
2023-03-06T05:06:58.248Z,71.36
2023-03-06T05:09:28.762Z,71.52
2023-03-06T05:16:12.809Z,71.69
2023-03-06T05:18:43.494Z,71.96
2023-03-06T05:21:14.368Z,72.12
2023-03-06T05:23:44.817Z,72.23
2023-03-06T05:26:16.878Z,72.43
2023-03-06T05:28:47.265Z,72.46
2023-03-06T05:31:17.785Z,72.60
2023-03-06T05:33:48.374Z,72.68
2023-03-06T05:36:18.841Z,72.81
2023-03-06T05:38:49.334Z,72.90
2023-03-06T05:41:19.892Z,72.83
2023-03-06T05:43:50.422Z,73.05
2023-03-06T05:46:21.005Z,73.05
2023-03-06T05:48:52.544Z,72.96
2023-03-06T05:51:23.012Z,72.93
2023-03-06T05:53:53.503Z,73.00
2023-03-06T05:56:24.061Z,72.86
2023-03-06T05:58:54.502Z,72.93
2023-03-06T06:01:26.029Z,72.88
2023-03-06T06:03:56.704Z,72.71
2023-03-06T06:06:27.234Z,72.80
2023-03-06T06:13:10.655Z,72.37
2023-03-06T06:15:41.744Z,72.45
2023-03-06T06:18:12.375Z,72.44
2023-03-06T06:20:42.839Z,72.32
2023-03-06T06:23:14.074Z,72.11
2023-03-06T06:25:44.601Z,71.86
2023-03-06T06:28:15.033Z,71.97
2023-03-06T06:30:45.660Z,71.74
2023-03-06T06:33:16.167Z,71.59
2023-03-06T06:35:46.693Z,71.58
2023-03-06T06:38:17.248Z,71.52
2023-03-06T06:41:18.035Z,71.29
2023-03-06T06:43:38.143Z,71.23
2023-03-06T06:46:38.827Z,71.09
2023-03-06T06:49:00.153Z,71.03
2023-03-06T06:51:33.681Z,70.89
2023-03-06T06:54:04.457Z,70.75
2023-03-06T06:56:35.877Z,70.67
2023-03-06T06:59:16.138Z,70.53
2023-03-06T07:01:47.865Z,70.29
2023-03-06T07:04:19.261Z,70.15
2023-03-06T07:06:49.690Z,70.24
2023-03-06T07:09:20.616Z,70.12
2023-03-06T07:11:51.437Z,70.02
2023-03-06T07:14:22.099Z,69.98
2023-03-06T07:16:52.600Z,69.67
2023-03-06T07:19:23.246Z,69.31
2023-03-06T07:21:53.783Z,69.23
2023-03-06T07:24:24.379Z,68.92
2023-03-06T07:26:54.849Z,68.85
2023-03-06T07:29:25.341Z,68.60
2023-03-06T07:31:56.047Z,68.47
2023-03-06T07:34:26.686Z,68.26
2023-03-06T07:36:57.236Z,68.21
2023-03-06T07:39:28.244Z,67.93
2023-03-06T07:41:59.226Z,67.49
2023-03-06T07:44:30.202Z,67.27
2023-03-06T07:47:00.926Z,67.28
2023-03-06T07:49:31.618Z,67.08
2023-03-06T07:52:03.147Z,66.85
2023-03-06T07:54:35.294Z,66.70
2023-03-06T07:57:06.077Z,66.48
2023-03-06T07:59:36.571Z,66.27
2023-03-06T08:02:07.280Z,66.22
2023-03-06T08:04:37.707Z,65.82
2023-03-06T08:07:08.362Z,65.94
2023-03-06T08:09:38.958Z,65.79
2023-03-06T08:12:10.665Z,65.26
2023-03-06T08:14:41.256Z,65.26
2023-03-06T08:17:11.786Z,65.27
2023-03-06T08:19:42.213Z,65.21
2023-03-06T08:22:14.082Z,65.25
2023-03-06T08:24:44.603Z,64.91
2023-03-06T08:27:15.097Z,64.64
2023-03-06T08:29:45.539Z,64.37
2023-03-06T08:32:16.091Z,64.30
2023-03-06T08:34:46.825Z,64.32
2023-03-06T08:37:17.315Z,64.05
2023-03-06T08:39:47.847Z,63.89
2023-03-06T08:42:18.415Z,63.85
2023-03-06T08:44:48.964Z,63.88
2023-03-06T08:47:19.517Z,63.59
2023-03-06T08:49:50.062Z,63.93
2023-03-06T08:52:20.983Z,63.93
2023-03-06T08:54:51.407Z,63.73
2023-03-06T08:57:22.103Z,63.57
2023-03-06T08:59:52.591Z,63.35
2023-03-06T09:02:23.193Z,63.35
2023-03-06T09:04:53.991Z,63.00
2023-03-06T09:07:24.467Z,63.20
2023-03-06T09:09:58.567Z,63.06
2023-03-06T09:12:30.823Z,62.77
2023-03-06T09:15:08.061Z,62.45
2023-03-06T09:17:38.555Z,62.38
2023-03-06T09:20:12.031Z,62.52
2023-03-06T09:22:43.070Z,61.86
2023-03-06T09:25:17.606Z,61.97
2023-03-06T09:27:55.484Z,61.88
2023-03-06T09:30:32.711Z,61.54
2023-03-06T09:33:03.319Z,61.22
2023-03-06T09:35:33.841Z,61.48
2023-03-06T09:38:04.304Z,60.96
2023-03-06T09:40:49.353Z,60.52
2023-03-06T09:43:27.143Z,60.62
2023-03-06T09:45:58.182Z,60.08
2023-03-06T09:48:40.647Z,59.61
2023-03-06T09:51:16.248Z,59.51
2023-03-06T09:54:02.463Z,59.40
2023-03-06T09:56:36.872Z,59.80
2023-03-06T09:59:14.296Z,59.02
2023-03-06T10:01:50.921Z,58.79
2023-03-06T10:04:35.647Z,58.77
2023-03-06T10:07:14.205Z,59.30
2023-03-06T10:09:51.899Z,58.48
2023-03-06T10:12:28.816Z,58.12
2023-03-06T10:15:04.030Z,58.31
2023-03-06T10:17:38.561Z,58.52
2023-03-06T10:20:25.176Z,58.39
2023-03-06T10:23:08.085Z,57.88
2023-03-06T10:25:48.858Z,57.67
2023-03-06T10:28:25.520Z,57.78
2023-03-06T10:31:04.188Z,57.40
2023-03-06T10:33:48.177Z,57.46
2023-03-06T10:36:20.878Z,57.48
2023-03-06T10:38:51.718Z,57.11
2023-03-06T10:41:28.533Z,57.57
2023-03-06T10:44:20.947Z,57.37
2023-03-06T10:46:53.594Z,57.42
2023-03-06T10:49:36.151Z,57.61
2023-03-06T10:52:22.832Z,57.37
2023-03-06T10:54:53.311Z,56.51
2023-03-06T10:57:29.054Z,56.59
2023-03-06T11:00:01.114Z,56.47
2023-03-06T11:02:36.328Z,56.76
2023-03-06T11:05:19.928Z,56.14
2023-03-06T11:07:59.281Z,55.95
2023-03-06T11:10:31.037Z,56.03
2023-03-06T11:13:06.281Z,56.06
2023-03-06T11:15:37.025Z,55.72
2023-03-06T11:18:31.238Z,55.17
2023-03-06T11:21:02.564Z,55.40
2023-03-06T11:23:39.263Z,55.03
2023-03-06T11:26:25.976Z,54.78
2023-03-06T11:29:07.970Z,54.35
2023-03-06T11:31:43.789Z,54.28
2023-03-06T11:34:24.371Z,54.37
2023-03-06T11:36:59.636Z,54.22
2023-03-06T11:39:37.054Z,53.97
2023-03-06T11:42:16.917Z,53.92
2023-03-06T11:45:02.886Z,53.58
2023-03-06T11:47:37.871Z,53.40
2023-03-06T11:50:19.104Z,52.88
2023-03-06T11:52:52.535Z,52.69
2023-03-06T11:55:34.852Z,52.68
2023-03-06T11:58:23.197Z,52.60
2023-03-06T12:01:01.631Z,52.84
2023-03-06T12:03:57.822Z,52.65
2023-03-06T12:06:39.222Z,52.48
2023-03-06T12:09:25.215Z,52.32
2023-03-06T12:12:06.582Z,51.76
2023-03-06T12:14:53.230Z,51.60
2023-03-06T12:17:32.943Z,51.56
2023-03-06T12:20:22.427Z,51.17
2023-03-06T12:23:14.167Z,50.51
2023-03-06T12:25:49.454Z,50.28
2023-03-06T12:28:32.692Z,50.44
2023-03-06T12:31:23.784Z,50.58
2023-03-06T12:34:04.639Z,50.57
2023-03-06T12:36:48.341Z,50.04
2023-03-06T12:39:28.492Z,49.94
2023-03-06T12:42:22.634Z,49.44
2023-03-06T12:45:23.016Z,49.24
2023-03-06T12:47:57.398Z,49.38
2023-03-06T12:50:30.235Z,49.56
2023-03-06T12:53:04.011Z,49.77
2023-03-06T12:55:41.820Z,49.33
2023-03-06T12:58:51.077Z,49.59
2023-03-06T13:01:51.848Z,49.69
2023-03-06T13:04:36.391Z,49.82
2023-03-06T13:07:19.903Z,50.20
2023-03-06T13:10:06.867Z,50.55
2023-03-06T13:12:51.266Z,50.39
2023-03-06T13:15:39.973Z,50.41
2023-03-06T13:18:57.263Z,50.44
2023-03-06T13:22:03.929Z,50.52
2023-03-06T13:24:37.198Z,50.48
2023-03-06T13:27:11.019Z,50.73
2023-03-06T13:30:29.709Z,50.84
2023-03-06T13:33:00.250Z,50.96
2023-03-06T13:35:52.884Z,51.23
2023-03-06T13:39:08.643Z,51.22
2023-03-06T13:41:56.964Z,53.03
2023-03-06T13:44:53.332Z,54.60
2023-03-06T13:47:59.136Z,55.83
2023-03-06T13:50:38.410Z,56.92
2023-03-06T13:53:42.166Z,58.05
2023-03-06T13:56:19.566Z,58.59
2023-03-06T13:59:15.948Z,59.31
2023-03-06T14:01:57.643Z,60.06
2023-03-06T14:04:45.193Z,60.96
2023-03-06T14:07:24.933Z,61.22
2023-03-06T14:10:10.738Z,61.84
2023-03-06T14:12:44.486Z,61.79
2023-03-06T14:15:22.143Z,62.17
2023-03-06T14:17:58.707Z,62.12
2023-03-06T14:20:36.625Z,62.11
2023-03-06T14:23:28.214Z,62.08
2023-03-06T14:26:08.491Z,62.27
2023-03-06T14:28:39.117Z,62.11
2023-03-06T14:31:14.846Z,61.95
2023-03-06T14:33:51.329Z,61.49
2023-03-06T14:36:24.361Z,61.48
2023-03-06T14:38:58.253Z,60.71
2023-03-06T14:41:31.998Z,60.86
2023-03-06T14:44:19.381Z,60.63
2023-03-06T14:46:51.358Z,60.26
2023-03-06T14:49:24.892Z,60.18
2023-03-06T14:51:57.641Z,59.93
2023-03-06T14:54:32.741Z,59.65
2023-03-06T14:57:06.794Z,59.67
2023-03-06T14:59:44.551Z,59.46
2023-03-06T15:02:21.128Z,59.31
2023-03-06T15:04:56.271Z,59.24
2023-03-06T15:07:31.494Z,59.19
2023-03-06T15:10:02.577Z,58.81
2023-03-06T15:12:39.636Z,58.81
2023-03-06T15:15:29.026Z,58.80
2023-03-06T15:17:59.626Z,58.54
2023-03-06T15:20:51.870Z,58.43
2023-03-06T15:23:26.799Z,58.75
2023-03-06T15:26:01.852Z,58.93
2023-03-06T15:28:38.661Z,58.64
2023-03-06T15:35:37.334Z,58.30
2023-03-06T15:38:32.999Z,58.23
2023-03-06T15:41:05.528Z,58.22
2023-03-06T15:43:39.377Z,58.48
2023-03-06T15:50:30.926Z,58.67
2023-03-06T15:53:01.352Z,58.55
2023-03-06T15:55:32.866Z,58.52
2023-03-06T15:58:04.712Z,58.87
2023-03-06T16:00:38.594Z,59.09
2023-03-06T16:03:11.411Z,58.80
2023-03-06T16:05:42.055Z,59.00
2023-03-06T16:08:15.020Z,59.19
2023-03-06T16:10:46.832Z,59.31
2023-03-06T16:13:20.504Z,59.40
2023-03-06T16:20:17.697Z,59.79
2023-03-06T16:22:50.592Z,59.78
2023-03-06T16:29:33.804Z,60.28
2023-03-06T16:32:04.730Z,60.48
2023-03-06T16:34:35.320Z,60.33
2023-03-06T16:37:07.296Z,60.72
2023-03-06T16:39:37.712Z,60.65
2023-03-06T16:42:08.758Z,61.04
2023-03-06T16:44:39.512Z,61.01
2023-03-06T16:47:12.843Z,61.46
2023-03-06T16:49:43.424Z,61.42
2023-03-06T16:56:34.536Z,61.61
2023-03-06T16:59:05.337Z,62.01
2023-03-06T17:01:36.010Z,61.84
2023-03-06T17:04:06.930Z,61.61
2023-03-06T17:06:38.082Z,62.06
2023-03-06T17:13:22.462Z,62.11
2023-03-06T17:15:59.589Z,61.89
2023-03-06T17:22:42.672Z,61.91
2023-03-06T17:25:13.937Z,62.03
2023-03-06T17:27:44.476Z,61.71
2023-03-06T17:30:16.486Z,61.62
2023-03-06T17:32:46.951Z,61.52
2023-03-06T17:35:17.508Z,61.46
2023-03-06T17:37:47.975Z,61.06
2023-03-06T17:40:19.481Z,61.01
2023-03-06T17:42:50.713Z,61.06
2023-03-06T17:45:21.363Z,61.09
2023-03-06T17:47:55.491Z,61.38
2023-03-06T17:50:25.937Z,61.57
2023-03-06T17:52:56.750Z,61.29
2023-03-06T17:55:28.991Z,61.27
2023-03-06T17:57:59.533Z,61.42
2023-03-06T18:00:30.049Z,61.42
2023-03-06T18:03:54.024Z,61.44
2023-03-06T18:06:27.657Z,61.95
2023-03-06T18:08:59.031Z,61.71
2023-03-06T18:11:30.519Z,61.93
2023-03-06T18:14:01.083Z,62.10
2023-03-06T18:20:34.060Z,62.31
2023-03-06T18:23:04.501Z,62.14
2023-03-06T18:25:34.986Z,62.33
2023-03-06T18:28:42.587Z,62.64
2023-03-06T18:31:19.902Z,62.57
2023-03-06T18:33:52.012Z,62.35
2023-03-06T18:36:24.420Z,62.68
2023-03-06T18:38:55.710Z,62.52
2023-03-06T18:41:26.211Z,62.55
2023-03-06T18:43:57.928Z,62.84
2023-03-06T18:46:30.598Z,62.59
2023-03-06T18:49:01.726Z,62.66
2023-03-06T18:51:32.772Z,62.55
2023-03-06T18:54:04.931Z,62.72
2023-03-06T18:56:35.671Z,62.73
2023-03-06T18:59:08.009Z,62.94
2023-03-06T19:01:37.760Z,62.81
2023-03-06T19:04:08.229Z,62.60
2023-03-06T19:06:39.940Z,62.59
2023-03-06T19:09:11.375Z,62.32
2023-03-06T19:11:42.761Z,62.58
2023-03-06T19:14:13.497Z,62.81
2023-03-06T19:16:44.465Z,62.67
2023-03-06T19:19:14.967Z,62.72
2023-03-06T19:21:45.375Z,62.78
2023-03-06T19:24:15.822Z,62.38
2023-03-06T19:26:46.218Z,62.50
2023-03-06T19:29:16.982Z,62.36
2023-03-06T19:36:08.835Z,62.29
2023-03-06T19:38:37.960Z,62.50
2023-03-06T19:41:11.955Z,62.47
2023-03-06T19:43:43.410Z,62.48
2023-03-06T19:46:15.229Z,62.28
2023-03-06T19:48:46.401Z,62.66
2023-03-06T19:55:36.206Z,62.94
2023-03-06T19:58:07.266Z,63.03
2023-03-06T20:00:38.258Z,63.19
2023-03-06T20:03:09.044Z,63.61
2023-03-06T20:05:46.125Z,63.44
2023-03-06T20:08:16.580Z,63.72
2023-03-06T20:15:10.327Z,64.47
2023-03-06T20:17:41.112Z,64.55
2023-03-06T20:20:14.359Z,64.63
2023-03-06T20:22:44.772Z,64.82
2023-03-06T20:25:15.327Z,65.13
2023-03-06T20:27:45.736Z,65.11
2023-03-06T20:30:17.164Z,65.42
2023-03-06T20:32:47.641Z,65.36
2023-03-06T20:35:44.856Z,65.50
2023-03-06T20:42:29.085Z,65.63
2023-03-06T20:44:59.628Z,65.58
2023-03-06T20:47:30.309Z,65.91
2023-03-06T20:50:00.686Z,65.87
2023-03-06T20:52:31.157Z,65.78
2023-03-06T20:55:01.923Z,66.03
2023-03-06T21:06:25.851Z,66.14
2023-03-06T21:08:56.639Z,66.18
2023-03-06T21:11:28.286Z,66.30
2023-03-06T21:13:59.180Z,66.06
2023-03-06T21:20:56.344Z,66.42
2023-03-06T21:23:26.804Z,66.58
2023-03-06T21:25:57.421Z,66.74
2023-03-06T21:28:28.175Z,66.75
2023-03-06T21:31:00.604Z,66.63
2023-03-06T21:33:31.690Z,66.74
2023-03-06T21:36:02.503Z,66.77
2023-03-06T21:47:06.292Z,66.39
2023-03-06T21:49:36.872Z,66.00
2023-03-06T21:52:07.842Z,66.01
2023-03-06T21:54:38.421Z,65.96
2023-03-06T21:57:10.379Z,66.26
2023-03-06T21:59:41.289Z,66.40
2023-03-06T22:02:12.638Z,66.29
2023-03-06T22:04:44.301Z,66.40
2023-03-06T22:07:14.741Z,66.44
2023-03-06T22:09:45.278Z,66.26
2023-03-06T22:12:15.673Z,66.43
2023-03-06T22:14:47.034Z,66.33
2023-03-06T22:17:17.495Z,66.28
2023-03-06T22:19:49.121Z,66.41
2023-03-06T22:22:19.566Z,66.18
2023-03-06T22:24:50.990Z,66.31
2023-03-06T22:27:21.829Z,66.23
2023-03-06T22:29:52.874Z,66.38
2023-03-06T22:32:23.512Z,66.56
2023-03-06T22:34:54.033Z,66.58
2023-03-06T22:37:24.545Z,66.63
2023-03-06T22:39:55.003Z,66.46
2023-03-06T22:42:25.470Z,66.59
2023-03-06T22:44:55.967Z,66.75
2023-03-06T22:47:26.404Z,66.49
2023-03-06T22:49:57.004Z,66.61
2023-03-06T22:52:27.393Z,66.39
2023-03-06T22:54:58.166Z,66.62
2023-03-06T22:57:30.015Z,66.70
2023-03-06T23:00:00.479Z,66.81
2023-03-06T23:02:36.172Z,66.62
2023-03-06T23:05:07.409Z,66.80
2023-03-06T23:07:37.914Z,66.70
2023-03-06T23:10:10.538Z,66.85
2023-03-06T23:12:59.825Z,67.02
2023-03-06T23:15:49.036Z,67.12
2023-03-06T23:18:39.257Z,67.17
2023-03-06T23:21:28.211Z,67.10
2023-03-06T23:24:17.519Z,67.17
2023-03-06T23:26:48.003Z,67.27
2023-03-06T23:29:18.595Z,67.26
2023-03-06T23:31:49.116Z,67.34
2023-03-06T23:34:19.546Z,67.52
2023-03-06T23:36:49.996Z,67.55
2023-03-06T23:39:20.938Z,67.45
2023-03-06T23:41:51.433Z,67.34
2023-03-06T23:44:21.851Z,67.78
2023-03-06T23:46:52.269Z,67.55
2023-03-06T23:49:22.725Z,67.65
2023-03-06T23:51:53.262Z,67.66
2023-03-06T23:54:23.989Z,67.61
2023-03-06T23:56:54.608Z,67.84
2023-03-06T23:59:25.068Z,67.67
